createdAt,value
2023-03-27T00:00:57.024Z,98169.25
2023-03-27T00:05:01.778Z,98167.69
2023-03-27T00:09:08.437Z,98167.00
2023-03-27T00:13:11.489Z,98153.88
2023-03-27T00:17:14.511Z,98150.47
2023-03-27T00:21:17.801Z,98145.41
2023-03-27T00:25:23.528Z,98155.91
2023-03-27T00:29:27.752Z,98155.94
2023-03-27T00:33:30.891Z,98156.88
2023-03-27T00:37:34.059Z,98163.03
2023-03-27T00:41:38.744Z,98173.69
2023-03-27T00:45:42.087Z,98170.22
2023-03-27T00:49:45.893Z,98167.59
2023-03-27T00:53:50.365Z,98159.78
2023-03-27T00:58:00.177Z,98164.25
2023-03-27T01:02:04.462Z,98163.38
2023-03-27T01:06:08.764Z,98167.84
2023-03-27T01:10:13.229Z,98159.94
2023-03-27T01:14:27.509Z,98162.59
2023-03-27T01:18:45.039Z,98156.47
2023-03-27T01:23:35.862Z,98167.00
2023-03-27T01:28:05.160Z,98156.47
2023-03-27T01:32:44.904Z,98155.66
2023-03-27T01:37:06.285Z,98165.34
2023-03-27T01:41:16.916Z,98152.38
2023-03-27T01:45:24.855Z,98156.88
2023-03-27T01:49:32.113Z,98143.81
2023-03-27T01:53:39.874Z,98145.59
2023-03-27T01:57:50.277Z,98148.47
2023-03-27T02:02:00.031Z,98146.97
2023-03-27T02:06:08.779Z,98154.34
2023-03-27T02:10:21.709Z,98140.59
2023-03-27T02:14:29.908Z,98152.16
2023-03-27T02:18:37.292Z,98148.75
2023-03-27T02:22:40.669Z,98140.88
2023-03-27T02:26:44.797Z,98143.56
2023-03-27T02:31:05.787Z,98132.31
2023-03-27T02:35:35.595Z,98127.19
2023-03-27T02:39:48.910Z,98131.56
2023-03-27T02:44:02.095Z,98118.59
2023-03-27T02:48:35.474Z,98122.06
2023-03-27T02:52:44.576Z,98107.25
2023-03-27T02:56:51.895Z,98112.53
2023-03-27T03:01:04.850Z,98112.56
2023-03-27T03:05:22.238Z,98119.63
2023-03-27T03:09:26.330Z,98107.44
2023-03-27T03:13:29.498Z,98115.44
2023-03-27T03:17:32.580Z,98105.78
2023-03-27T03:21:37.695Z,98104.19
2023-03-27T03:31:44.272Z,98099.13
2023-03-27T03:35:49.090Z,98104.50
2023-03-27T03:40:04.837Z,98096.72
2023-03-27T03:44:08.163Z,98102.94
2023-03-27T03:48:11.161Z,98106.50
2023-03-27T03:52:14.236Z,98119.72
2023-03-27T03:56:19.300Z,98112.81
2023-03-27T04:00:26.870Z,98105.03
2023-03-27T04:04:32.088Z,98122.53
2023-03-27T04:08:42.760Z,98130.53
2023-03-27T04:13:09.696Z,98130.59
2023-03-27T04:17:20.663Z,98125.38
2023-03-27T04:21:26.532Z,98134.22
2023-03-27T04:25:30.080Z,98141.25
2023-03-27T04:29:36.332Z,98148.31
2023-03-27T04:33:46.695Z,98155.38
2023-03-27T04:38:20.157Z,98148.50
2023-03-27T04:42:28.126Z,98154.59
2023-03-27T04:46:32.930Z,98146.88
2023-03-27T04:50:44.116Z,98146.66
2023-03-27T04:54:50.552Z,98146.75
2023-03-27T04:58:54.258Z,98154.75
2023-03-27T05:03:01.090Z,98163.50
2023-03-27T05:07:13.164Z,98167.97
2023-03-27T05:11:17.051Z,98191.63
2023-03-27T05:15:22.771Z,98196.00
2023-03-27T05:19:27.293Z,98194.28
2023-03-27T05:23:36.571Z,98202.16
2023-03-27T05:27:45.613Z,98205.72
2023-03-27T05:31:48.723Z,98203.09
2023-03-27T05:36:12.596Z,98206.50
2023-03-27T05:40:20.994Z,98211.75
2023-03-27T05:50:42.713Z,98223.06
2023-03-27T05:54:57.989Z,98225.69
2023-03-27T05:59:02.328Z,98239.69
2023-03-27T06:03:09.676Z,98244.09
2023-03-27T06:07:31.286Z,98258.09
2023-03-27T06:11:41.138Z,98253.66
2023-03-27T06:15:44.990Z,98271.22
2023-03-27T06:19:57.984Z,98265.13
2023-03-27T06:24:01.173Z,98263.47
2023-03-27T06:28:08.053Z,98272.28
2023-03-27T06:32:17.795Z,98275.81
2023-03-27T06:36:27.546Z,98278.50
2023-03-27T06:40:35.342Z,98282.91
2023-03-27T06:44:39.916Z,98283.75
2023-03-27T06:48:51.124Z,98286.41
2023-03-27T06:52:55.454Z,98294.31
2023-03-27T06:57:24.652Z,98290.81
2023-03-27T07:01:36.824Z,98302.16
2023-03-27T07:06:07.346Z,98303.06
2023-03-27T07:10:19.880Z,98314.41
2023-03-27T07:14:24.252Z,98305.59
2023-03-27T07:18:28.911Z,98313.47
2023-03-27T07:22:32.164Z,98321.31
2023-03-27T07:26:41.201Z,98318.66
2023-03-27T07:30:55.744Z,98334.38
2023-03-27T07:35:00.438Z,98338.75
2023-03-27T07:39:26.677Z,98342.22
2023-03-27T07:43:29.828Z,98344.75
2023-03-27T07:47:34.610Z,98346.56
2023-03-27T07:51:39.868Z,98357.06
2023-03-27T07:55:43.062Z,98363.16
2023-03-27T07:59:46.328Z,98360.53
2023-03-27T08:03:59.476Z,98372.75
2023-03-27T08:08:05.953Z,98371.00
2023-03-27T08:12:20.498Z,98375.38
2023-03-27T08:16:32.832Z,98374.44
2023-03-27T08:20:36.792Z,98375.38
2023-03-27T08:24:41.167Z,98384.91
2023-03-27T08:28:48.066Z,98391.03
2023-03-27T08:32:51.123Z,98391.13
2023-03-27T08:36:54.835Z,98404.31
2023-03-27T08:41:05.089Z,98402.53
2023-03-27T08:45:20.736Z,98413.09
2023-03-27T08:49:31.939Z,98411.38
2023-03-27T08:53:50.651Z,98414.88
2023-03-27T08:58:01.066Z,98420.13
2023-03-27T09:02:12.540Z,98424.59
2023-03-27T09:06:25.874Z,98432.53
2023-03-27T09:10:36.886Z,98443.91
2023-03-27T09:14:59.491Z,98453.59
2023-03-27T09:19:09.404Z,98468.63
2023-03-27T09:23:17.790Z,98513.47
2023-03-27T09:27:42.442Z,98526.94
2023-03-27T09:32:16.842Z,98542.91
2023-03-27T09:36:20.213Z,98558.81
2023-03-27T09:40:30.308Z,98561.50
2023-03-27T09:44:38.324Z,98581.72
2023-03-27T09:48:50.347Z,98608.81
2023-03-27T09:53:08.474Z,98619.34
2023-03-27T09:57:38.588Z,98649.06
2023-03-27T10:01:48.236Z,98628.16
2023-03-27T10:06:06.968Z,98657.88
2023-03-27T10:10:22.290Z,98676.19
2023-03-27T10:14:49.497Z,98688.41
2023-03-27T10:19:01.475Z,98698.84
2023-03-27T10:23:25.303Z,98718.00
2023-03-27T10:27:31.139Z,98743.28
2023-03-27T10:32:12.536Z,98748.47
2023-03-27T10:36:37.971Z,98761.50
2023-03-27T10:40:51.962Z,98784.94
2023-03-27T10:45:09.666Z,98797.06
2023-03-27T10:49:25.639Z,98814.41
2023-03-27T10:53:37.337Z,98817.84
2023-03-27T10:57:46.371Z,98831.75
2023-03-27T11:01:54.606Z,98845.59
2023-03-27T11:06:01.376Z,98855.13
2023-03-27T11:10:17.891Z,98877.78
2023-03-27T11:14:29.038Z,98902.09
2023-03-27T11:18:37.359Z,98940.38
2023-03-27T11:22:47.237Z,98948.09
2023-03-27T11:27:14.354Z,98956.75
2023-03-27T11:31:32.473Z,98971.56
2023-03-27T11:35:39.486Z,98996.72
2023-03-27T11:40:13.068Z,98994.06
2023-03-27T11:44:15.990Z,99017.47
2023-03-27T11:49:12.787Z,99027.94
2023-03-27T11:53:35.977Z,99041.88
2023-03-27T11:58:05.286Z,99048.78
2023-03-27T12:02:49.665Z,99054.78
2023-03-27T12:07:12.250Z,99067.78
2023-03-27T12:11:19.928Z,99075.59
2023-03-27T12:15:58.111Z,99086.91
2023-03-27T12:20:48.760Z,99083.41
2023-03-27T12:25:29.003Z,99079.16
2023-03-27T12:30:02.280Z,99082.78
2023-03-27T12:34:12.288Z,99085.56
2023-03-27T12:38:23.996Z,99102.25
2023-03-27T12:42:44.592Z,99100.66
2023-03-27T12:51:19.972Z,99105.41
2023-03-27T12:55:37.198Z,99109.91
2023-03-27T13:00:02.489Z,99107.41
2023-03-27T13:04:38.294Z,99131.97
2023-03-27T13:09:02.390Z,99119.88
2023-03-27T13:13:40.690Z,99131.28
2023-03-27T13:18:18.605Z,99133.94
2023-03-27T13:22:37.053Z,99131.41
2023-03-27T13:27:04.186Z,99148.94
2023-03-27T13:31:14.678Z,99154.19
2023-03-27T13:36:08.179Z,99136.78
2023-03-27T13:40:33.300Z,99147.31
2023-03-27T13:44:59.189Z,99164.81
2023-03-27T13:49:19.354Z,99157.84
2023-03-27T13:53:42.852Z,99172.66
2023-03-27T13:58:20.959Z,99181.41
2023-03-27T14:02:47.218Z,99184.88
2023-03-27T14:07:26.035Z,99197.03
2023-03-27T14:11:51.574Z,99198.84
2023-03-27T14:16:42.475Z,99211.09
2023-03-27T14:20:50.145Z,99211.13
2023-03-27T14:24:57.711Z,99219.84
2023-03-27T14:29:10.942Z,99230.34
2023-03-27T14:33:20.304Z,99235.63
2023-03-27T14:37:32.091Z,99236.56
2023-03-27T14:41:46.735Z,99252.31
2023-03-27T14:45:53.569Z,99250.47
2023-03-27T14:50:01.681Z,99246.03
2023-03-27T14:54:28.806Z,99253.91
2023-03-27T14:58:44.001Z,99280.03
2023-03-27T15:02:50.329Z,99291.28
2023-03-27T15:06:55.987Z,99277.25
2023-03-27T15:11:23.368Z,99277.25
2023-03-27T15:15:39.756Z,99296.44
2023-03-27T15:19:48.529Z,99309.50
2023-03-27T15:24:00.973Z,99311.25
2023-03-27T15:28:11.570Z,99313.03
2023-03-27T15:32:18.564Z,99324.44
2023-03-27T15:36:28.405Z,99335.81
2023-03-27T15:40:36.691Z,99348.94
2023-03-27T15:44:43.617Z,99369.94
2023-03-27T15:48:50.835Z,99390.88
2023-03-27T15:52:57.268Z,99377.72
2023-03-27T15:57:10.790Z,99383.72
2023-03-27T16:01:20.013Z,99415.06
2023-03-27T16:05:23.164Z,99407.25
2023-03-27T16:09:29.680Z,99416.91
2023-03-27T16:13:37.520Z,99419.34
2023-03-27T16:17:46.570Z,99408.75
2023-03-27T16:21:57.535Z,99420.91
2023-03-27T16:26:02.149Z,99437.44
2023-03-27T16:30:06.671Z,99432.13
2023-03-27T16:34:21.944Z,99451.28
2023-03-27T16:38:26.215Z,99460.81
2023-03-27T16:42:29.146Z,99472.03
2023-03-27T16:46:33.190Z,99483.31
2023-03-27T16:50:37.531Z,99477.97
2023-03-27T16:54:41.627Z,99497.06
2023-03-27T16:58:44.577Z,99499.59
2023-03-27T17:02:47.701Z,99512.59
2023-03-27T17:06:52.209Z,99516.78
2023-03-27T17:10:55.162Z,99529.88
2023-03-27T17:14:58.566Z,99534.97
2023-03-27T17:19:01.495Z,99553.25
2023-03-27T17:23:05.832Z,99551.38
2023-03-27T17:27:08.972Z,99557.44
2023-03-27T17:31:11.922Z,99558.25
2023-03-27T17:35:14.996Z,99570.34
2023-03-27T17:39:19.443Z,99584.25
2023-03-27T17:43:22.368Z,99591.09
2023-03-27T17:47:25.543Z,99593.63
2023-03-27T17:51:28.446Z,99607.41
2023-03-27T17:55:32.738Z,99609.97
2023-03-27T17:59:36.371Z,99625.53
2023-03-27T18:03:39.502Z,99625.41
2023-03-27T18:07:42.557Z,99631.47
2023-03-27T18:11:47.138Z,99646.22
2023-03-27T18:15:55.223Z,99655.75
2023-03-27T18:19:58.189Z,99660.09
2023-03-27T18:24:01.293Z,99657.44
2023-03-27T18:28:06.367Z,99666.94
2023-03-27T18:32:09.360Z,99675.56
2023-03-27T18:36:12.534Z,99677.13
2023-03-27T18:40:18.330Z,99687.44
2023-03-27T18:44:22.618Z,99696.81
2023-03-27T18:48:26.081Z,99698.38
2023-03-27T18:52:29.437Z,99707.81
2023-03-27T18:56:32.382Z,99709.47
2023-03-27T19:00:36.684Z,99712.00
2023-03-27T19:04:39.617Z,99716.25
2023-03-27T19:08:45.463Z,99715.38
2023-03-27T19:12:49.670Z,99710.97
2023-03-27T19:17:32.036Z,99718.75
2023-03-27T19:22:08.367Z,99722.13
2023-03-27T19:26:17.576Z,99718.63
2023-03-27T19:30:21.906Z,99714.28
2023-03-27T19:34:36.428Z,99727.13
2023-03-27T19:38:45.892Z,99729.66
2023-03-27T19:42:49.139Z,99727.09
2023-03-27T19:46:52.084Z,99733.09
2023-03-27T19:51:01.440Z,99734.78
2023-03-27T19:55:10.942Z,99736.47
2023-03-27T19:59:20.870Z,99734.63
2023-03-27T20:03:31.329Z,99741.47
2023-03-27T20:07:35.787Z,99734.34
2023-03-27T20:11:39.343Z,99743.75
2023-03-27T20:15:43.075Z,99737.59
2023-03-27T20:19:48.771Z,99733.97
2023-03-27T20:23:54.843Z,99740.84
2023-03-27T20:28:07.371Z,99737.28
2023-03-27T20:32:10.611Z,99730.13
2023-03-27T20:36:14.193Z,99738.84
2023-03-27T20:40:18.877Z,99743.22
2023-03-27T20:44:21.799Z,99731.69
2023-03-27T20:48:25.167Z,99748.13
2023-03-27T20:52:28.424Z,99753.25
2023-03-27T20:56:33.284Z,99743.69
2023-03-27T21:00:36.619Z,99753.97
2023-03-27T21:04:39.518Z,99755.66
2023-03-27T21:08:42.495Z,99756.38
2023-03-27T21:12:48.440Z,99751.94
2023-03-27T21:16:51.507Z,99758.84
2023-03-27T21:20:57.042Z,99769.25
2023-03-27T21:25:00.050Z,99760.50
2023-03-27T21:29:04.700Z,99769.06
2023-03-27T21:33:08.326Z,99769.81
2023-03-27T21:37:11.418Z,99782.84
2023-03-27T21:41:16.336Z,99783.66
2023-03-27T21:45:20.662Z,99781.81
2023-03-27T21:49:23.800Z,99790.44
2023-03-27T21:53:26.792Z,99788.66
2023-03-27T21:57:29.713Z,99787.69
2023-03-27T22:01:34.076Z,99792.78
2023-03-27T22:05:38.516Z,99784.06
2023-03-27T22:09:41.608Z,99792.69
2023-03-27T22:13:46.401Z,99796.03
2023-03-27T22:17:50.950Z,99798.66
2023-03-27T22:21:54.051Z,99795.94
2023-03-27T22:25:57.260Z,99808.13
2023-03-27T22:30:00.506Z,99810.59
2023-03-27T22:34:05.324Z,99813.13
2023-03-27T22:38:08.650Z,99826.09
2023-03-27T22:42:11.720Z,99813.78
2023-03-27T22:46:17.239Z,99818.06
2023-03-27T22:50:21.806Z,99828.38
2023-03-27T22:54:24.790Z,99838.66
2023-03-27T22:58:28.260Z,99837.78
2023-03-27T23:02:31.339Z,99845.56
2023-03-27T23:06:35.821Z,99860.28
2023-03-27T23:10:38.790Z,99850.66
2023-03-27T23:14:41.731Z,99861.06
2023-03-27T23:18:44.676Z,99868.72
2023-03-27T23:22:49.372Z,99875.63
2023-03-27T23:26:52.694Z,99869.50
2023-03-27T23:30:58.950Z,99882.44
2023-03-27T23:35:02.176Z,99871.06
2023-03-27T23:39:06.548Z,99883.25
2023-03-27T23:43:09.471Z,99873.50
2023-03-27T23:47:12.404Z,99884.81
2023-03-27T23:51:17.106Z,99874.41
2023-03-27T23:55:21.382Z,99880.59
2023-03-27T23:59:24.387Z,99880.53
